createdAt,value
2024-05-09T00:00:22.549Z,2.20
2024-05-09T00:03:23.991Z,2.20
2024-05-09T00:05:57.654Z,2.70
2024-05-09T00:08:31.533Z,2.70
2024-05-09T00:11:05.835Z,2.60
2024-05-09T00:13:39.658Z,2.50
2024-05-09T00:16:13.579Z,2.60
2024-05-09T00:18:47.284Z,2.70
2024-05-09T00:21:20.926Z,2.80
2024-05-09T00:23:54.919Z,2.50
2024-05-09T00:26:28.717Z,3.00
2024-05-09T00:29:02.754Z,2.80
2024-05-09T00:31:36.421Z,2.90
2024-05-09T00:34:10.300Z,2.90
2024-05-09T00:36:44.324Z,2.50
2024-05-09T00:39:18.265Z,2.60
2024-05-09T00:41:51.946Z,3.00
2024-05-09T00:44:26.028Z,2.60
2024-05-09T00:47:00.238Z,2.50
2024-05-09T00:49:34.864Z,2.70
2024-05-09T00:52:11.755Z,2.30
2024-05-09T00:54:45.385Z,2.70
2024-05-09T00:57:19.700Z,3.10
2024-05-09T00:59:54.637Z,2.30
2024-05-09T01:02:29.026Z,2.80
2024-05-09T01:05:03.159Z,2.80
2024-05-09T01:07:37.150Z,2.60
2024-05-09T01:10:17.130Z,3.20
2024-05-09T01:12:54.726Z,2.80
2024-05-09T01:15:28.371Z,3.00
2024-05-09T01:18:04.869Z,2.70
2024-05-09T01:20:42.459Z,2.60
2024-05-09T01:23:18.359Z,3.10
2024-05-09T01:25:51.953Z,2.70
2024-05-09T01:28:25.638Z,2.90
2024-05-09T01:30:59.369Z,2.50
2024-05-09T01:33:33.661Z,2.60
2024-05-09T01:36:08.469Z,3.00
2024-05-09T01:38:42.117Z,2.60
2024-05-09T01:41:16.259Z,2.20
2024-05-09T01:43:49.873Z,2.40
2024-05-09T01:46:23.561Z,2.80
2024-05-09T01:48:57.664Z,2.50
2024-05-09T01:51:31.330Z,2.60
2024-05-09T01:54:05.258Z,2.40
2024-05-09T01:56:39.048Z,3.00
2024-05-09T01:59:12.753Z,2.50
2024-05-09T02:01:56.510Z,2.80
2024-05-09T02:04:31.528Z,2.50
2024-05-09T02:07:06.976Z,2.70
2024-05-09T02:09:40.705Z,2.50
2024-05-09T02:12:14.140Z,2.30
2024-05-09T02:14:48.009Z,2.60
2024-05-09T02:17:21.863Z,2.30
2024-05-09T02:19:56.034Z,2.50
2024-05-09T02:22:29.756Z,2.80
2024-05-09T02:25:03.451Z,2.40
2024-05-09T02:27:37.264Z,2.90
2024-05-09T02:30:18.973Z,2.40
2024-05-09T02:32:59.951Z,2.50
2024-05-09T02:35:33.809Z,2.30
2024-05-09T02:38:07.827Z,2.80
2024-05-09T02:40:41.474Z,2.60
2024-05-09T02:43:15.770Z,2.90
2024-05-09T02:45:49.458Z,2.60
2024-05-09T02:48:23.570Z,2.80
2024-05-09T02:50:57.479Z,2.70
2024-05-09T02:53:31.213Z,2.90
2024-05-09T02:56:05.014Z,2.90
2024-05-09T02:58:38.725Z,3.10
2024-05-09T03:01:12.448Z,2.70
2024-05-09T03:03:50.324Z,2.70
2024-05-09T03:06:24.147Z,2.70
2024-05-09T03:08:58.190Z,3.20
2024-05-09T03:11:32.186Z,3.20
2024-05-09T03:14:06.259Z,2.80
2024-05-09T03:16:43.059Z,2.90
2024-05-09T03:19:16.947Z,3.00
2024-05-09T03:21:50.896Z,3.00
2024-05-09T03:24:24.658Z,2.90
2024-05-09T03:26:58.409Z,2.70
2024-05-09T03:29:32.144Z,2.90
2024-05-09T03:32:06.575Z,2.80
2024-05-09T03:34:41.505Z,2.30
2024-05-09T03:37:15.658Z,2.90
2024-05-09T03:39:49.338Z,2.90
2024-05-09T03:42:23.107Z,2.70
2024-05-09T03:44:56.869Z,2.40
2024-05-09T03:47:32.261Z,2.90
2024-05-09T03:50:14.975Z,3.00
2024-05-09T03:52:52.455Z,2.80
2024-05-09T03:55:26.121Z,3.20
2024-05-09T03:57:59.908Z,2.80
2024-05-09T04:00:38.133Z,3.00
2024-05-09T04:03:13.851Z,3.40
2024-05-09T04:05:48.590Z,3.20
2024-05-09T04:08:22.202Z,3.50
2024-05-09T04:10:55.804Z,3.10
2024-05-09T04:13:29.414Z,3.50
2024-05-09T04:16:03.018Z,3.40
2024-05-09T04:18:36.640Z,3.20
2024-05-09T04:21:11.009Z,3.30
2024-05-09T04:23:44.823Z,3.60
2024-05-09T04:26:18.509Z,3.60
2024-05-09T04:28:52.248Z,3.30
2024-05-09T04:31:29.327Z,3.50
2024-05-09T04:34:03.217Z,3.30
2024-05-09T04:36:37.700Z,3.10
2024-05-09T04:39:12.221Z,3.40
2024-05-09T04:41:46.053Z,3.90
2024-05-09T04:44:19.709Z,3.40
2024-05-09T04:46:53.261Z,3.40
2024-05-09T04:49:27.107Z,3.40
2024-05-09T04:52:00.959Z,3.60
2024-05-09T04:54:36.602Z,3.60
2024-05-09T04:57:10.770Z,3.50
2024-05-09T04:59:44.589Z,3.70
2024-05-09T05:02:18.491Z,3.40
2024-05-09T05:04:52.556Z,4.10
2024-05-09T05:07:26.848Z,3.30
2024-05-09T05:10:00.967Z,3.90
2024-05-09T05:12:52.484Z,3.60
2024-05-09T05:15:26.227Z,3.40
2024-05-09T05:18:00.460Z,3.80
2024-05-09T05:20:34.547Z,3.50
2024-05-09T05:23:13.530Z,3.80
2024-05-09T05:25:48.675Z,3.30
2024-05-09T05:28:22.885Z,3.60
2024-05-09T05:30:58.342Z,3.50
2024-05-09T05:33:32.062Z,3.90
2024-05-09T05:36:06.661Z,6.20
2024-05-09T05:38:40.428Z,4.10
2024-05-09T05:41:14.404Z,3.50
2024-05-09T05:43:48.046Z,3.60
2024-05-09T05:46:21.668Z,3.00
2024-05-09T05:48:55.253Z,3.30
2024-05-09T05:51:28.818Z,3.40
2024-05-09T05:54:02.273Z,3.60
2024-05-09T05:56:36.337Z,2.80
2024-05-09T05:59:11.975Z,3.50
2024-05-09T06:01:47.493Z,3.70
2024-05-09T06:04:21.352Z,3.10
2024-05-09T06:06:55.061Z,2.90
2024-05-09T06:09:28.570Z,3.20
2024-05-09T06:12:02.135Z,3.60
2024-05-09T06:14:35.969Z,2.70
2024-05-09T06:17:10.158Z,3.40
2024-05-09T06:19:44.356Z,3.20
2024-05-09T06:22:18.091Z,3.00
2024-05-09T06:24:51.696Z,2.60
2024-05-09T06:27:26.139Z,3.20
2024-05-09T06:29:59.731Z,4.10
2024-05-09T06:32:33.490Z,3.10
2024-05-09T06:35:11.127Z,3.30
2024-05-09T06:37:51.283Z,2.70
2024-05-09T06:40:29.745Z,2.70
2024-05-09T06:43:17.574Z,2.50
2024-05-09T06:45:54.550Z,2.40
2024-05-09T06:48:29.886Z,2.40
2024-05-09T06:51:03.848Z,2.50
2024-05-09T06:53:40.487Z,3.00
2024-05-09T06:56:15.109Z,2.60
2024-05-09T06:58:48.635Z,3.00
2024-05-09T07:01:22.463Z,2.90
2024-05-09T07:03:56.142Z,2.80
2024-05-09T07:06:30.318Z,2.80
2024-05-09T07:09:03.788Z,2.70
2024-05-09T07:11:38.123Z,2.30
2024-05-09T07:14:11.901Z,2.60
2024-05-09T07:16:45.658Z,2.30
2024-05-09T07:19:20.109Z,2.40
2024-05-09T07:21:53.959Z,2.00
2024-05-09T07:24:27.530Z,1.90
2024-05-09T07:27:01.024Z,1.70
2024-05-09T07:29:37.884Z,1.60
2024-05-09T07:32:12.281Z,1.60
2024-05-09T07:34:46.283Z,1.50
2024-05-09T07:37:20.172Z,1.60
2024-05-09T07:39:53.756Z,1.80
2024-05-09T07:42:27.235Z,1.60
2024-05-09T07:45:20.598Z,1.30
2024-05-09T07:49:43.976Z,1.30
2024-05-09T07:56:00.851Z,1.50
2024-05-09T07:58:34.988Z,1.40
2024-05-09T08:01:09.407Z,1.40
2024-05-09T08:03:43.503Z,1.60
2024-05-09T08:06:17.134Z,1.60
2024-05-09T08:08:51.695Z,1.80
2024-05-09T08:11:25.312Z,1.50
2024-05-09T08:13:59.283Z,1.20
2024-05-09T08:16:32.928Z,1.40
2024-05-09T08:19:07.499Z,1.60
2024-05-09T08:21:41.385Z,1.90
2024-05-09T08:24:14.814Z,1.70
2024-05-09T08:26:48.615Z,1.50
2024-05-09T08:29:22.224Z,1.60
2024-05-09T08:31:58.744Z,1.70
2024-05-09T08:34:32.428Z,1.60
2024-05-09T08:37:13.141Z,1.80
2024-05-09T08:39:54.111Z,1.60
2024-05-09T08:42:31.401Z,1.60
2024-05-09T08:45:07.542Z,1.70
2024-05-09T08:47:41.875Z,1.80
2024-05-09T08:50:31.574Z,1.70
2024-05-09T08:53:14.455Z,1.70
2024-05-09T08:55:52.733Z,1.60
2024-05-09T08:58:30.561Z,1.60
2024-05-09T09:01:05.386Z,1.70
2024-05-09T09:03:41.287Z,1.80
2024-05-09T09:06:18.128Z,1.70
2024-05-09T09:08:53.298Z,1.50
2024-05-09T09:11:27.391Z,1.60
2024-05-09T09:14:03.718Z,1.30
2024-05-09T09:16:38.483Z,1.60
2024-05-09T09:19:12.342Z,1.70
2024-05-09T09:21:46.438Z,1.70
2024-05-09T09:24:20.846Z,1.40
2024-05-09T09:26:59.364Z,1.80
2024-05-09T09:29:35.321Z,1.90
2024-05-09T09:32:11.503Z,1.70
2024-05-09T09:34:48.508Z,1.40
2024-05-09T09:37:29.754Z,1.50
2024-05-09T09:40:08.927Z,1.50
2024-05-09T09:42:44.844Z,1.80
2024-05-09T09:45:22.311Z,1.60
2024-05-09T09:48:00.196Z,2.10
2024-05-09T09:50:36.808Z,1.80
2024-05-09T09:53:13.070Z,1.60
2024-05-09T09:55:49.323Z,1.80
2024-05-09T09:58:25.089Z,1.50
2024-05-09T10:00:59.985Z,1.80
2024-05-09T10:03:35.967Z,1.90
2024-05-09T10:06:12.496Z,1.80
2024-05-09T10:08:49.274Z,1.80
2024-05-09T10:11:25.659Z,1.70
2024-05-09T10:14:03.949Z,1.40
2024-05-09T10:16:44.262Z,1.80
2024-05-09T10:19:29.434Z,1.90
2024-05-09T10:22:09.027Z,1.30
2024-05-09T10:24:53.955Z,1.70
2024-05-09T10:27:52.971Z,1.60
2024-05-09T10:30:36.364Z,1.40
2024-05-09T10:33:14.443Z,1.30
2024-05-09T10:35:56.283Z,1.40
2024-05-09T10:38:30.731Z,1.20
2024-05-09T10:41:04.910Z,1.80
2024-05-09T10:43:42.605Z,1.50
2024-05-09T10:46:18.770Z,1.60
2024-05-09T10:48:53.310Z,1.40
2024-05-09T10:51:27.441Z,1.20
2024-05-09T10:54:02.260Z,1.30
2024-05-09T10:56:36.830Z,1.50
2024-05-09T10:59:10.313Z,1.30
2024-05-09T11:01:44.748Z,1.40
2024-05-09T11:04:19.404Z,1.40
2024-05-09T11:06:53.347Z,1.60
2024-05-09T11:09:27.664Z,1.20
2024-05-09T11:12:01.834Z,1.70
2024-05-09T11:14:36.007Z,1.80
2024-05-09T11:17:11.268Z,3.50
2024-05-09T11:19:46.599Z,1.90
2024-05-09T11:22:21.496Z,1.50
2024-05-09T11:24:56.726Z,2.00
2024-05-09T11:27:32.864Z,2.00
2024-05-09T11:30:24.298Z,2.00
2024-05-09T11:33:05.114Z,2.00
2024-05-09T11:35:38.641Z,2.20
2024-05-09T11:38:12.872Z,2.10
2024-05-09T11:40:47.082Z,2.00
2024-05-09T11:43:20.849Z,2.40
2024-05-09T11:45:55.561Z,2.50
2024-05-09T11:48:29.838Z,2.10
2024-05-09T11:51:03.636Z,1.70
2024-05-09T11:53:37.729Z,1.60
2024-05-09T11:56:14.737Z,1.50
2024-05-09T11:58:48.466Z,1.90
2024-05-09T12:01:23.707Z,1.60
2024-05-09T12:03:59.455Z,2.20
2024-05-09T12:06:33.627Z,1.60
2024-05-09T12:09:07.574Z,1.60
2024-05-09T12:11:41.397Z,3.10
2024-05-09T12:14:15.008Z,1.60
2024-05-09T12:16:50.474Z,3.70
2024-05-09T12:19:24.206Z,5.00
2024-05-09T12:21:59.660Z,1.90
2024-05-09T12:24:33.777Z,1.40
2024-05-09T12:27:08.786Z,1.20
2024-05-09T12:29:42.516Z,1.50
2024-05-09T12:32:16.697Z,1.70
2024-05-09T12:34:50.752Z,1.70
2024-05-09T12:37:24.557Z,1.80
2024-05-09T12:39:58.191Z,1.60
2024-05-09T12:42:33.728Z,2.20
2024-05-09T12:45:09.448Z,1.80
2024-05-09T12:47:43.716Z,1.90
2024-05-09T12:50:25.125Z,2.20
2024-05-09T12:53:05.620Z,1.90
2024-05-09T12:55:47.951Z,1.60
2024-05-09T12:58:27.968Z,2.10
2024-05-09T13:01:01.967Z,2.00
2024-05-09T13:03:36.194Z,1.90
2024-05-09T13:06:10.357Z,4.00
2024-05-09T13:08:44.277Z,3.50
2024-05-09T13:11:18.031Z,2.00
2024-05-09T13:13:52.008Z,1.70
2024-05-09T13:16:26.329Z,2.20
2024-05-09T13:19:00.573Z,1.70
2024-05-09T13:21:34.344Z,1.50
2024-05-09T13:24:09.273Z,1.70
2024-05-09T13:26:43.571Z,1.50
2024-05-09T13:29:17.190Z,1.70
2024-05-09T13:31:51.307Z,2.30
2024-05-09T13:34:25.416Z,1.90
2024-05-09T13:37:01.816Z,2.10
2024-05-09T13:39:36.896Z,2.40
2024-05-09T13:42:11.158Z,3.10
2024-05-09T13:44:44.883Z,2.80
2024-05-09T13:47:18.937Z,2.70
2024-05-09T13:49:52.701Z,2.00
2024-05-09T13:52:26.698Z,2.10
2024-05-09T13:55:00.656Z,1.90
2024-05-09T13:57:35.278Z,1.80
2024-05-09T14:00:22.914Z,2.50
2024-05-09T14:03:05.522Z,2.10
2024-05-09T14:05:39.529Z,2.00
2024-05-09T14:08:15.707Z,2.10
2024-05-09T14:10:52.033Z,2.30
2024-05-09T14:13:25.755Z,2.90
2024-05-09T14:15:59.921Z,13.10
2024-05-09T14:18:34.004Z,2.20
2024-05-09T14:21:08.047Z,4.80
2024-05-09T14:23:41.509Z,3.20
2024-05-09T14:26:15.595Z,2.50
2024-05-09T14:28:49.289Z,3.00
2024-05-09T14:31:22.808Z,3.70
2024-05-09T14:33:56.754Z,2.20
2024-05-09T14:36:30.510Z,2.40
2024-05-09T14:39:04.666Z,2.00
2024-05-09T14:41:38.992Z,2.60
2024-05-09T14:44:12.604Z,2.10
2024-05-09T14:46:46.979Z,2.20
2024-05-09T14:49:20.782Z,2.30
2024-05-09T14:51:54.915Z,2.70
2024-05-09T14:54:28.510Z,2.60
2024-05-09T14:57:02.423Z,2.70
2024-05-09T14:59:35.994Z,2.90
2024-05-09T15:02:10.079Z,2.50
2024-05-09T15:04:44.345Z,2.50
2024-05-09T15:07:18.466Z,3.10
2024-05-09T15:09:52.263Z,3.00
2024-05-09T15:12:26.689Z,2.70
2024-05-09T15:15:03.478Z,12.20
2024-05-09T15:17:37.157Z,5.10
2024-05-09T15:20:17.087Z,3.30
2024-05-09T15:22:54.179Z,2.80
2024-05-09T15:25:27.798Z,3.20
2024-05-09T15:28:02.811Z,2.70
2024-05-09T15:30:36.833Z,3.40
2024-05-09T15:33:11.673Z,3.50
2024-05-09T15:35:46.482Z,3.20
2024-05-09T15:38:20.938Z,2.80
2024-05-09T15:40:54.943Z,2.30
2024-05-09T15:43:28.826Z,2.30
2024-05-09T15:46:03.019Z,2.30
2024-05-09T15:48:37.811Z,2.80
2024-05-09T15:51:13.105Z,2.30
2024-05-09T15:53:46.740Z,2.50
2024-05-09T15:56:20.995Z,2.20
2024-05-09T15:58:54.760Z,2.50
2024-05-09T16:01:28.803Z,1.80
2024-05-09T16:04:03.128Z,1.70
2024-05-09T16:06:37.738Z,1.70
2024-05-09T16:09:13.762Z,1.90
2024-05-09T16:11:47.596Z,1.50
2024-05-09T16:14:21.473Z,1.50
2024-05-09T16:16:55.880Z,1.30
2024-05-09T16:19:29.745Z,1.50
2024-05-09T16:22:03.488Z,1.50
2024-05-09T16:24:38.073Z,1.90
2024-05-09T16:27:12.019Z,1.30
2024-05-09T16:29:46.495Z,1.60
2024-05-09T16:32:20.020Z,1.30
2024-05-09T16:34:53.719Z,1.40
2024-05-09T16:37:29.496Z,1.50
2024-05-09T16:40:04.545Z,1.30
2024-05-09T16:42:39.752Z,1.50
2024-05-09T16:45:13.686Z,1.20
2024-05-09T16:47:47.758Z,1.50
2024-05-09T16:50:28.853Z,1.50
2024-05-09T16:53:07.335Z,1.50
2024-05-09T16:55:41.371Z,1.80
2024-05-09T16:58:17.512Z,2.00
2024-05-09T17:00:51.550Z,2.00
2024-05-09T17:03:25.750Z,1.90
2024-05-09T17:06:03.083Z,1.90
2024-05-09T17:08:37.665Z,2.00
2024-05-09T17:11:12.236Z,1.70
2024-05-09T17:13:48.108Z,1.50
2024-05-09T17:16:23.082Z,1.60
2024-05-09T17:18:57.231Z,2.10
2024-05-09T17:21:33.729Z,1.80
2024-05-09T17:24:08.103Z,1.70
2024-05-09T17:26:42.002Z,1.50
2024-05-09T17:29:16.586Z,2.00
2024-05-09T17:31:50.390Z,1.40
2024-05-09T17:34:24.955Z,1.20
2024-05-09T17:37:00.270Z,1.50
2024-05-09T17:39:34.482Z,1.30
2024-05-09T17:42:08.872Z,1.20
2024-05-09T17:44:43.021Z,1.50
2024-05-09T17:47:16.996Z,2.00
2024-05-09T17:49:51.101Z,1.40
2024-05-09T17:52:25.096Z,1.40
2024-05-09T17:54:59.590Z,1.60
2024-05-09T17:57:33.757Z,1.50
2024-05-09T18:00:11.806Z,1.80
2024-05-09T18:02:48.743Z,1.60
2024-05-09T18:05:22.838Z,1.50
2024-05-09T18:07:57.450Z,1.40
2024-05-09T18:10:36.774Z,1.40
2024-05-09T18:13:14.172Z,1.40
2024-05-09T18:15:48.205Z,1.50
2024-05-09T18:18:22.647Z,1.80
2024-05-09T18:20:56.517Z,1.50
2024-05-09T18:23:31.098Z,1.60
2024-05-09T18:26:05.514Z,1.40
2024-05-09T18:28:39.930Z,1.70
2024-05-09T18:31:14.117Z,1.50
2024-05-09T18:33:48.295Z,1.50
2024-05-09T18:36:22.305Z,1.40
2024-05-09T18:38:56.415Z,1.30
2024-05-09T18:41:30.525Z,1.50
2024-05-09T18:44:04.613Z,1.40
2024-05-09T18:46:38.932Z,1.40
2024-05-09T18:49:13.421Z,1.40
2024-05-09T18:51:49.555Z,1.50
2024-05-09T18:54:23.433Z,1.50
2024-05-09T18:56:57.090Z,1.40
2024-05-09T18:59:30.949Z,2.10
2024-05-09T19:02:05.223Z,1.30
2024-05-09T19:04:39.468Z,1.20
2024-05-09T19:07:14.428Z,1.40
2024-05-09T19:09:48.767Z,1.20
2024-05-09T19:12:22.857Z,1.30
2024-05-09T19:14:56.789Z,1.50
2024-05-09T19:17:32.207Z,1.20
2024-05-09T19:20:11.595Z,1.50
2024-05-09T19:22:51.745Z,1.40
2024-05-09T19:25:29.440Z,2.30
2024-05-09T19:28:04.267Z,1.60
2024-05-09T19:30:41.693Z,1.70
2024-05-09T19:33:17.173Z,1.70
2024-05-09T19:35:51.350Z,2.60
2024-05-09T19:38:25.479Z,1.50
2024-05-09T19:40:59.592Z,1.40
2024-05-09T19:43:36.060Z,1.80
2024-05-09T19:46:10.978Z,1.40
2024-05-09T19:48:45.819Z,1.80
2024-05-09T19:51:20.605Z,1.50
2024-05-09T19:53:55.183Z,1.70
2024-05-09T19:56:29.435Z,1.70
2024-05-09T19:59:04.076Z,1.90
2024-05-09T20:01:38.339Z,2.00
2024-05-09T20:04:13.832Z,1.70
2024-05-09T20:06:48.088Z,2.00
2024-05-09T20:09:22.796Z,1.80
2024-05-09T20:11:56.881Z,1.90
2024-05-09T20:14:31.384Z,1.90
2024-05-09T20:17:05.600Z,2.50
2024-05-09T20:19:39.890Z,2.10
2024-05-09T20:22:14.284Z,2.10
2024-05-09T20:24:48.533Z,1.80
2024-05-09T20:27:22.708Z,1.90
2024-05-09T20:29:57.026Z,2.00
2024-05-09T20:32:31.159Z,2.00
2024-05-09T20:35:05.472Z,2.10
2024-05-09T20:37:39.544Z,1.70
2024-05-09T20:40:21.764Z,2.10
2024-05-09T20:43:02.985Z,1.90
2024-05-09T20:45:37.166Z,2.20
2024-05-09T20:48:12.732Z,2.20
2024-05-09T20:50:46.873Z,2.30
2024-05-09T20:53:23.248Z,2.80
2024-05-09T20:55:57.278Z,2.70
2024-05-09T20:58:31.283Z,2.80
2024-05-09T21:01:05.898Z,2.70
2024-05-09T21:03:41.995Z,2.60
2024-05-09T21:06:16.032Z,2.80
2024-05-09T21:08:49.791Z,2.70
2024-05-09T21:11:24.880Z,2.70
2024-05-09T21:13:58.993Z,2.70
2024-05-09T21:16:34.109Z,3.00
2024-05-09T21:19:08.317Z,2.60
2024-05-09T21:21:46.340Z,2.80
2024-05-09T21:24:20.724Z,3.70
2024-05-09T21:26:55.107Z,2.80
2024-05-09T21:29:29.056Z,3.10
2024-05-09T21:32:02.979Z,3.80
2024-05-09T21:34:36.754Z,3.80
2024-05-09T21:37:10.942Z,3.50
2024-05-09T21:39:45.636Z,4.40
2024-05-09T21:42:19.459Z,3.90
2024-05-09T21:44:53.495Z,3.70
2024-05-09T21:47:27.375Z,3.80
2024-05-09T21:50:01.286Z,3.80
2024-05-09T21:52:34.978Z,4.10
2024-05-09T21:55:09.772Z,4.00
2024-05-09T21:57:43.627Z,4.80
2024-05-09T22:00:28.461Z,5.20
2024-05-09T22:03:10.944Z,5.10
2024-05-09T22:05:45.842Z,4.30
2024-05-09T22:08:19.737Z,3.90
2024-05-09T22:10:53.598Z,4.60
2024-05-09T22:13:28.619Z,4.40
2024-05-09T22:16:03.750Z,3.90
2024-05-09T22:18:38.037Z,4.10
2024-05-09T22:21:11.755Z,5.10
2024-05-09T22:23:45.842Z,4.80
2024-05-09T22:26:19.744Z,4.60
2024-05-09T22:28:53.398Z,4.70
2024-05-09T22:31:28.260Z,4.50
2024-05-09T22:34:02.212Z,5.30
2024-05-09T22:36:36.287Z,4.70
2024-05-09T22:39:10.339Z,4.80
2024-05-09T22:41:45.417Z,4.60
2024-05-09T22:44:19.098Z,5.20
2024-05-09T22:46:52.968Z,5.40
2024-05-09T22:49:26.953Z,5.00
2024-05-09T22:52:00.610Z,4.50
2024-05-09T22:54:34.831Z,4.80
2024-05-09T22:57:09.185Z,4.80
2024-05-09T22:59:42.808Z,5.90
2024-05-09T23:02:17.993Z,5.00
2024-05-09T23:04:51.705Z,4.80
2024-05-09T23:07:25.542Z,4.80
2024-05-09T23:09:59.392Z,4.60
2024-05-09T23:12:33.484Z,5.40
2024-05-09T23:15:08.728Z,4.70
2024-05-09T23:17:42.599Z,5.00
2024-05-09T23:20:25.896Z,4.70
2024-05-09T23:23:04.066Z,5.60
2024-05-09T23:25:38.139Z,4.60
2024-05-09T23:28:12.384Z,5.40
2024-05-09T23:30:46.283Z,5.30
2024-05-09T23:33:20.108Z,5.00
2024-05-09T23:35:53.746Z,5.00
2024-05-09T23:38:27.732Z,5.70
2024-05-09T23:41:01.291Z,5.90
2024-05-09T23:43:36.089Z,5.70
2024-05-09T23:46:09.902Z,6.00
2024-05-09T23:48:43.839Z,5.80
2024-05-09T23:51:18.527Z,5.20
2024-05-09T23:53:52.347Z,5.80
2024-05-09T23:56:25.954Z,5.00
2024-05-09T23:58:59.492Z,5.00
